createdAt,value
2023-01-05T00:01:39.529Z,98.66
2023-01-05T00:04:08.609Z,99.02
2023-01-05T00:06:37.536Z,99.42
2023-01-05T00:09:06.068Z,100.00
2023-01-05T00:11:53.147Z,100.00
2023-01-05T00:14:41.339Z,100.00
2023-01-05T00:17:30.247Z,100.00
2023-01-05T00:20:18.173Z,100.00
2023-01-05T00:22:48.805Z,100.00
2023-01-05T00:25:19.234Z,100.00
2023-01-05T00:27:51.775Z,100.00
2023-01-05T00:30:21.603Z,100.00
2023-01-05T00:32:49.791Z,100.00
2023-01-05T00:35:18.530Z,100.00
2023-01-05T00:37:46.884Z,100.00
2023-01-05T00:40:17.406Z,100.00
2023-01-05T00:42:45.874Z,100.00
2023-01-05T00:45:17.019Z,100.00
2023-01-05T00:47:45.723Z,100.00
2023-01-05T00:50:15.995Z,100.00
2023-01-05T00:52:44.565Z,100.00
2023-01-05T00:55:12.768Z,100.00
2023-01-05T00:57:42.164Z,100.00
2023-01-05T01:00:17.372Z,100.00
2023-01-05T01:02:45.833Z,100.00
2023-01-05T01:05:14.461Z,100.00
2023-01-05T01:07:42.940Z,100.00
2023-01-05T01:10:12.613Z,100.00
2023-01-05T01:15:09.555Z,100.00
2023-01-05T01:17:39.210Z,100.00
2023-01-05T01:20:09.010Z,100.00
2023-01-05T01:22:37.115Z,100.00
2023-01-05T01:25:05.753Z,100.00
2023-01-05T01:27:34.597Z,100.00
2023-01-05T01:30:02.993Z,100.00
2023-01-05T01:32:31.141Z,100.00
2023-01-05T01:35:00.644Z,100.00
2023-01-05T01:37:28.766Z,100.00
2023-01-05T01:39:57.955Z,100.00
2023-01-05T01:42:26.078Z,100.00
2023-01-05T01:44:57.643Z,100.00
2023-01-05T01:47:35.070Z,100.00
2023-01-05T01:50:09.774Z,100.00
2023-01-05T01:52:39.289Z,100.00
2023-01-05T01:55:09.709Z,100.00
2023-01-05T01:57:39.917Z,100.00
2023-01-05T02:00:10.822Z,100.00
2023-01-05T02:02:39.139Z,100.00
2023-01-05T02:05:14.116Z,100.00
2023-01-05T02:07:46.897Z,100.00
2023-01-05T02:10:17.950Z,100.00
2023-01-05T02:13:04.949Z,100.00
2023-01-05T02:15:44.769Z,100.00
2023-01-05T02:18:41.247Z,100.00
2023-01-05T02:21:23.765Z,100.00
2023-01-05T02:24:21.712Z,100.00
2023-01-05T02:27:37.455Z,100.00
2023-01-05T02:30:33.649Z,100.00
2023-01-05T02:33:12.354Z,100.00
2023-01-05T02:35:48.012Z,100.00
2023-01-05T02:38:22.751Z,100.00
2023-01-05T02:40:55.317Z,100.00
2023-01-05T02:43:23.633Z,100.00
2023-01-05T02:45:51.866Z,100.00
2023-01-05T02:48:21.546Z,100.00
2023-01-05T02:50:57.629Z,100.00
2023-01-05T02:53:29.604Z,100.00
2023-01-05T02:56:02.178Z,100.00
2023-01-05T02:58:37.448Z,100.00
2023-01-05T03:01:11.046Z,100.00
2023-01-05T03:03:44.467Z,100.00
2023-01-05T03:06:16.477Z,100.00
2023-01-05T03:08:51.396Z,100.00
2023-01-05T03:11:37.291Z,100.00
2023-01-05T03:14:12.392Z,100.00
2023-01-05T03:16:40.960Z,100.00
2023-01-05T03:19:31.228Z,100.00
2023-01-05T03:22:19.081Z,100.00
2023-01-05T03:25:05.156Z,100.00
2023-01-05T03:27:51.529Z,100.00
2023-01-05T03:30:38.608Z,100.00
2023-01-05T03:33:31.072Z,100.00
2023-01-05T03:36:02.437Z,100.00
2023-01-05T03:38:35.051Z,100.00
2023-01-05T03:41:06.243Z,100.00
2023-01-05T03:43:36.103Z,100.00
2023-01-05T03:46:13.339Z,100.00
2023-01-05T03:48:41.569Z,100.00
2023-01-05T03:51:11.116Z,100.00
2023-01-05T03:53:39.213Z,100.00
2023-01-05T03:56:08.202Z,100.00
2023-01-05T03:58:36.279Z,100.00
2023-01-05T04:01:04.715Z,100.00
2023-01-05T04:03:33.098Z,100.00
2023-01-05T04:06:01.855Z,100.00
2023-01-05T04:08:31.435Z,100.00
2023-01-05T04:11:10.933Z,100.00
2023-01-05T04:13:39.070Z,100.00
2023-01-05T04:16:10.131Z,100.00
2023-01-05T04:18:38.260Z,100.00
2023-01-05T04:21:07.503Z,100.00
2023-01-05T04:23:37.434Z,100.00
2023-01-05T04:26:06.147Z,100.00
2023-01-05T04:28:34.346Z,100.00
2023-01-05T04:31:02.562Z,100.00
2023-01-05T04:33:31.011Z,100.00
2023-01-05T04:35:59.330Z,100.00
2023-01-05T04:38:27.511Z,100.00
2023-01-05T04:40:57.101Z,100.00
2023-01-05T04:43:25.300Z,100.00
2023-01-05T04:45:53.511Z,100.00
2023-01-05T04:48:22.992Z,100.00
2023-01-05T04:50:54.518Z,100.00
2023-01-05T04:53:23.582Z,100.00
2023-01-05T04:55:52.312Z,100.00
2023-01-05T04:58:22.280Z,100.00
2023-01-05T05:00:51.063Z,100.00
2023-01-05T05:03:19.442Z,100.00
2023-01-05T05:05:48.760Z,100.00
2023-01-05T05:08:17.496Z,100.00
2023-01-05T05:10:45.729Z,100.00
2023-01-05T05:13:14.068Z,100.00
2023-01-05T05:15:45.885Z,100.00
2023-01-05T05:18:14.123Z,100.00
2023-01-05T05:20:45.119Z,100.00
2023-01-05T05:23:13.449Z,100.00
2023-01-05T05:25:41.756Z,100.00
2023-01-05T05:28:09.845Z,100.00
2023-01-05T05:30:39.640Z,100.00
2023-01-05T05:33:09.320Z,100.00
2023-01-05T05:35:37.414Z,100.00
2023-01-05T05:38:05.735Z,100.00
2023-01-05T05:40:33.911Z,100.00
2023-01-05T05:43:02.179Z,100.00
2023-01-05T05:45:31.409Z,100.00
2023-01-05T05:48:01.302Z,100.00
2023-01-05T05:50:30.822Z,100.00
2023-01-05T05:52:58.892Z,100.00
2023-01-05T05:55:27.146Z,100.00
2023-01-05T05:57:55.280Z,100.00
2023-01-05T06:00:23.568Z,100.00
2023-01-05T06:02:53.876Z,100.00
2023-01-05T06:05:22.640Z,100.00
2023-01-05T06:07:52.189Z,100.00
2023-01-05T06:10:20.520Z,100.00
2023-01-05T06:12:48.793Z,100.00
2023-01-05T06:15:17.041Z,100.00
2023-01-05T06:17:46.825Z,100.00
2023-01-05T06:20:16.552Z,100.00
2023-01-05T06:22:45.988Z,100.00
2023-01-05T06:25:15.938Z,100.00
2023-01-05T06:27:44.143Z,100.00
2023-01-05T06:30:13.226Z,100.00
2023-01-05T06:32:42.415Z,100.00
2023-01-05T06:35:11.056Z,100.00
2023-01-05T06:37:39.246Z,100.00
2023-01-05T06:40:09.843Z,100.00
2023-01-05T06:42:39.372Z,100.00
2023-01-05T06:45:09.375Z,100.00
2023-01-05T06:47:37.543Z,100.00
2023-01-05T06:50:06.209Z,100.00
2023-01-05T06:52:39.973Z,100.00
2023-01-05T06:55:09.545Z,100.00
2023-01-05T06:57:39.342Z,100.00
2023-01-05T07:00:10.543Z,100.00
2023-01-05T07:02:38.953Z,100.00
2023-01-05T07:05:08.169Z,100.00
2023-01-05T07:07:36.985Z,100.00
2023-01-05T07:10:05.981Z,100.00
2023-01-05T07:12:34.358Z,100.00
2023-01-05T07:15:04.655Z,99.67
2023-01-05T07:17:33.024Z,98.94
2023-01-05T07:20:01.195Z,98.31
2023-01-05T07:22:31.025Z,98.30
2023-01-05T07:25:01.227Z,97.70
2023-01-05T07:27:29.465Z,97.68
2023-01-05T07:29:57.592Z,97.75
2023-01-05T07:32:27.156Z,97.57
2023-01-05T07:34:56.227Z,97.83
2023-01-05T07:37:25.604Z,97.08
2023-01-05T07:39:53.949Z,96.73
2023-01-05T07:42:23.594Z,96.20
2023-01-05T07:44:52.400Z,94.78
2023-01-05T07:47:20.583Z,94.76
2023-01-05T07:49:50.154Z,94.00
2023-01-05T07:52:18.683Z,93.18
2023-01-05T07:54:46.900Z,92.14
2023-01-05T07:57:15.047Z,92.08
2023-01-05T07:59:43.176Z,91.59
2023-01-05T08:02:12.053Z,91.05
2023-01-05T08:04:40.392Z,90.56
2023-01-05T08:07:12.893Z,89.43
2023-01-05T08:09:58.744Z,88.62
2023-01-05T08:12:27.107Z,87.63
2023-01-05T08:14:55.378Z,87.27
2023-01-05T08:17:24.024Z,87.92
2023-01-05T08:19:52.283Z,87.45
2023-01-05T08:22:21.859Z,87.86
2023-01-05T08:24:52.378Z,87.17
2023-01-05T08:27:20.615Z,85.47
2023-01-05T08:29:48.821Z,85.61
2023-01-05T08:32:16.977Z,85.32
2023-01-05T08:34:49.110Z,85.69
2023-01-05T08:37:21.654Z,85.54
2023-01-05T08:39:49.809Z,84.78
2023-01-05T08:42:18.150Z,84.57
2023-01-05T08:44:47.387Z,84.35
2023-01-05T08:47:18.185Z,84.55
2023-01-05T08:49:47.248Z,83.93
2023-01-05T08:52:15.487Z,84.45
2023-01-05T08:54:45.197Z,86.99
2023-01-05T08:57:13.303Z,87.40
2023-01-05T08:59:41.708Z,87.49
2023-01-05T09:02:12.967Z,88.20
2023-01-05T09:04:41.493Z,88.34
2023-01-05T09:07:09.783Z,88.72
2023-01-05T09:09:37.942Z,88.99
2023-01-05T09:12:08.652Z,88.94
2023-01-05T09:14:37.114Z,89.50
2023-01-05T09:17:07.513Z,89.04
2023-01-05T09:19:36.731Z,88.71
2023-01-05T09:22:05.334Z,88.50
2023-01-05T09:24:33.543Z,88.30
2023-01-05T09:27:01.727Z,84.42
2023-01-05T09:29:31.223Z,82.94
2023-01-05T09:31:59.342Z,81.44
2023-01-05T09:34:27.561Z,80.88
2023-01-05T09:36:56.137Z,80.41
2023-01-05T09:39:24.243Z,79.89
2023-01-05T09:41:55.615Z,79.22
2023-01-05T09:44:32.207Z,78.57
2023-01-05T09:47:04.460Z,78.45
2023-01-05T09:49:34.970Z,77.94
2023-01-05T09:52:09.208Z,77.47
2023-01-05T09:54:38.866Z,77.02
2023-01-05T09:57:11.064Z,75.90
2023-01-05T09:59:44.116Z,75.59
2023-01-05T10:02:21.599Z,75.92
2023-01-05T10:04:51.031Z,76.38
2023-01-05T10:07:28.276Z,75.58
2023-01-05T10:09:59.581Z,75.15
2023-01-05T10:12:50.342Z,74.69
2023-01-05T10:15:22.404Z,74.62
2023-01-05T10:17:50.646Z,74.83
2023-01-05T10:20:25.857Z,73.92
2023-01-05T10:23:04.660Z,73.93
2023-01-05T10:25:40.698Z,73.84
2023-01-05T10:28:25.204Z,73.39
2023-01-05T10:31:00.037Z,73.46
2023-01-05T10:33:53.622Z,72.97
2023-01-05T10:39:31.314Z,78.14
2023-01-05T10:42:05.415Z,79.78
2023-01-05T10:44:53.152Z,81.19
2023-01-05T10:47:24.230Z,83.42
2023-01-05T10:49:52.890Z,83.58
2023-01-05T10:52:23.987Z,84.86
2023-01-05T10:54:56.918Z,84.98
2023-01-05T10:57:39.329Z,87.30
2023-01-05T11:00:12.276Z,86.46
2023-01-05T11:02:44.503Z,85.76
2023-01-05T11:05:26.769Z,82.73
2023-01-05T11:07:57.572Z,81.55
2023-01-05T11:10:30.611Z,81.90
2023-01-05T11:13:05.065Z,82.86
2023-01-05T11:15:41.527Z,82.54
2023-01-05T11:18:26.624Z,82.39
2023-01-05T11:21:18.539Z,82.07
2023-01-05T11:23:48.960Z,80.87
2023-01-05T11:26:26.822Z,81.55
2023-01-05T11:29:14.685Z,82.03
2023-01-05T11:31:48.093Z,82.24
2023-01-05T11:34:31.561Z,75.40
2023-01-05T11:37:07.570Z,71.21
2023-01-05T11:39:40.240Z,70.21
2023-01-05T11:42:25.413Z,69.59
2023-01-05T11:44:56.743Z,69.18
2023-01-05T11:47:30.566Z,68.97
2023-01-05T11:50:08.732Z,68.28
2023-01-05T11:52:39.867Z,67.81
2023-01-05T11:55:30.475Z,67.32
2023-01-05T11:58:23.054Z,67.00
2023-01-05T12:01:07.506Z,66.64
2023-01-05T12:04:09.930Z,67.22
2023-01-05T12:06:56.378Z,66.56
2023-01-05T12:09:34.768Z,66.77
2023-01-05T12:12:28.132Z,66.97
2023-01-05T12:15:12.565Z,69.16
2023-01-05T12:17:50.541Z,68.35
2023-01-05T12:20:43.644Z,68.16
2023-01-05T12:23:33.657Z,67.89
2023-01-05T12:26:11.109Z,68.66
2023-01-05T12:35:53.201Z,68.54
2023-01-05T12:38:38.581Z,67.62
2023-01-05T12:41:38.915Z,67.91
2023-01-05T12:44:36.726Z,68.16
2023-01-05T12:47:20.254Z,67.16
2023-01-05T12:49:52.633Z,67.34
2023-01-05T12:52:29.143Z,67.72
2023-01-05T12:55:03.624Z,67.75
2023-01-05T12:57:37.833Z,67.85
2023-01-05T13:00:12.040Z,67.94
2023-01-05T13:02:42.768Z,67.57
2023-01-05T13:05:18.550Z,67.82
2023-01-05T13:07:51.745Z,67.66
2023-01-05T13:10:27.283Z,67.81
2023-01-05T13:12:59.540Z,66.92
2023-01-05T13:15:38.848Z,67.09
2023-01-05T13:18:12.588Z,66.65
2023-01-05T13:20:45.411Z,66.27
2023-01-05T13:23:19.495Z,66.90
2023-01-05T13:25:55.713Z,66.36
2023-01-05T13:28:27.509Z,66.82
2023-01-05T13:31:16.167Z,67.41
2023-01-05T13:34:08.991Z,67.72
2023-01-05T13:36:59.070Z,68.39
2023-01-05T13:39:44.112Z,69.37
2023-01-05T13:42:38.355Z,70.05
2023-01-05T13:45:51.313Z,70.41
2023-01-05T13:49:02.887Z,70.90
2023-01-05T13:51:54.927Z,71.14
2023-01-05T13:55:00.090Z,72.18
2023-01-05T13:57:39.321Z,71.99
2023-01-05T14:00:12.375Z,72.42
2023-01-05T14:02:43.230Z,72.68
2023-01-05T14:05:25.147Z,73.08
2023-01-05T14:07:54.976Z,73.23
2023-01-05T14:10:26.255Z,73.56
2023-01-05T14:12:56.617Z,76.78
2023-01-05T14:15:39.590Z,77.51
2023-01-05T14:18:09.354Z,78.72
2023-01-05T14:20:44.809Z,80.16
2023-01-05T14:23:51.174Z,80.35
2023-01-05T14:26:39.414Z,80.29
2023-01-05T14:29:09.741Z,80.57
2023-01-05T14:31:39.516Z,81.04
2023-01-05T14:34:15.512Z,80.63
2023-01-05T14:36:46.385Z,80.19
2023-01-05T14:39:27.795Z,81.46
2023-01-05T14:42:01.865Z,82.06
2023-01-05T14:44:36.140Z,82.93
2023-01-05T14:47:05.640Z,83.08
2023-01-05T14:49:38.235Z,83.64
2023-01-05T14:52:08.529Z,83.17
2023-01-05T14:55:05.730Z,82.69
2023-01-05T14:57:50.341Z,84.26
2023-01-05T15:00:30.861Z,85.53
2023-01-05T15:03:10.003Z,85.36
2023-01-05T15:05:53.554Z,85.71
2023-01-05T15:08:34.529Z,85.42
2023-01-05T15:11:28.131Z,85.91
2023-01-05T15:14:35.240Z,85.92
2023-01-05T15:17:45.326Z,85.76
2023-01-05T15:20:54.321Z,84.69
2023-01-05T15:24:10.929Z,84.95
2023-01-05T15:26:54.247Z,85.05
2023-01-05T15:29:51.434Z,84.76
2023-01-05T15:32:23.836Z,84.93
2023-01-05T15:34:57.686Z,85.16
2023-01-05T15:37:32.483Z,84.70
2023-01-05T15:40:04.287Z,84.38
2023-01-05T15:42:39.903Z,84.29
2023-01-05T15:45:21.432Z,84.21
2023-01-05T15:47:52.260Z,84.36
2023-01-05T15:50:23.450Z,84.50
2023-01-05T15:52:56.871Z,84.21
2023-01-05T15:55:26.433Z,84.20
2023-01-05T15:57:56.933Z,84.18
2023-01-05T16:00:27.439Z,84.43
2023-01-05T16:02:57.080Z,84.23
2023-01-05T16:05:26.941Z,84.86
2023-01-05T16:07:58.659Z,84.94
2023-01-05T16:10:31.056Z,85.11
2023-01-05T16:13:04.654Z,84.72
2023-01-05T16:15:35.892Z,84.99
2023-01-05T16:18:08.177Z,85.22
2023-01-05T16:20:38.272Z,85.43
2023-01-05T16:23:12.847Z,85.82
2023-01-05T16:25:43.695Z,85.79
2023-01-05T16:28:19.293Z,86.72
2023-01-05T16:30:49.005Z,86.97
2023-01-05T16:33:40.431Z,87.10
2023-01-05T16:36:12.229Z,86.89
2023-01-05T16:38:42.005Z,87.41
2023-01-05T16:41:16.325Z,87.62
2023-01-05T16:43:48.126Z,87.85
2023-01-05T16:46:29.533Z,87.55
2023-01-05T16:49:01.994Z,87.14
2023-01-05T16:51:42.080Z,88.00
2023-01-05T16:54:21.913Z,87.88
2023-01-05T16:56:58.368Z,87.32
2023-01-05T16:59:51.570Z,86.70
2023-01-05T17:02:32.242Z,86.26
2023-01-05T17:05:01.829Z,86.22
2023-01-05T17:07:30.130Z,85.76
2023-01-05T17:09:58.283Z,85.31
2023-01-05T17:12:26.629Z,84.86
2023-01-05T17:15:00.997Z,84.92
2023-01-05T17:17:29.273Z,85.01
2023-01-05T17:19:57.402Z,84.24
2023-01-05T17:22:26.968Z,84.25
2023-01-05T17:24:55.275Z,84.51
2023-01-05T17:27:23.427Z,83.92
2023-01-05T17:29:52.838Z,84.04
2023-01-05T17:32:23.604Z,83.75
2023-01-05T17:34:51.668Z,83.08
2023-01-05T17:37:19.907Z,82.82
2023-01-05T17:39:49.394Z,81.99
2023-01-05T17:42:35.293Z,81.71
2023-01-05T17:45:03.630Z,81.10
2023-01-05T17:47:31.777Z,81.17
2023-01-05T17:49:59.854Z,80.93
2023-01-05T17:52:28.193Z,81.38
2023-01-05T17:54:57.687Z,80.56
2023-01-05T17:57:25.821Z,79.99
2023-01-05T17:59:53.907Z,79.14
2023-01-05T18:02:22.223Z,78.39
2023-01-05T18:04:51.419Z,77.71
2023-01-05T18:07:20.528Z,78.04
2023-01-05T18:09:48.957Z,77.81
2023-01-05T18:12:18.556Z,78.32
2023-01-05T18:14:46.632Z,78.18
2023-01-05T18:17:15.884Z,78.96
2023-01-05T18:19:44.341Z,79.29
2023-01-05T18:22:12.719Z,79.62
2023-01-05T18:24:41.766Z,79.07
2023-01-05T18:27:10.397Z,79.12
2023-01-05T18:29:42.939Z,78.98
2023-01-05T18:32:11.777Z,78.98
2023-01-05T18:34:39.833Z,79.00
2023-01-05T18:37:15.682Z,79.61
2023-01-05T18:39:49.190Z,79.10
2023-01-05T18:42:17.922Z,79.55
2023-01-05T18:44:47.420Z,79.65
2023-01-05T18:47:17.956Z,79.93
2023-01-05T18:49:46.271Z,80.18
2023-01-05T18:52:14.394Z,79.90
2023-01-05T18:54:43.077Z,79.79
2023-01-05T18:57:11.366Z,79.76
2023-01-05T18:59:39.620Z,79.40
2023-01-05T19:02:15.330Z,79.15
2023-01-05T19:04:43.896Z,78.99
2023-01-05T19:07:13.408Z,78.79
2023-01-05T19:09:41.672Z,78.57
2023-01-05T19:12:10.078Z,78.25
2023-01-05T19:14:38.497Z,78.07
2023-01-05T19:17:06.641Z,77.83
2023-01-05T19:19:36.188Z,78.01
2023-01-05T19:22:06.405Z,77.99
2023-01-05T19:24:35.486Z,78.10
2023-01-05T19:27:03.592Z,78.47
2023-01-05T19:29:31.659Z,78.36
2023-01-05T19:32:00.052Z,77.99
2023-01-05T19:34:28.201Z,78.26
2023-01-05T19:36:57.651Z,78.33
2023-01-05T19:39:28.282Z,78.48
2023-01-05T19:41:56.361Z,78.89
2023-01-05T19:44:24.549Z,78.48
2023-01-05T19:46:54.305Z,78.49
2023-01-05T19:49:25.292Z,78.71
2023-01-05T19:51:54.668Z,78.79
2023-01-05T19:54:25.404Z,78.67
2023-01-05T19:56:55.116Z,78.83
2023-01-05T19:59:26.572Z,78.76
2023-01-05T20:01:56.385Z,78.81
2023-01-05T20:04:24.576Z,78.85
2023-01-05T20:06:52.846Z,79.08
2023-01-05T20:09:21.356Z,80.06
2023-01-05T20:11:54.844Z,79.83
2023-01-05T20:14:30.964Z,79.40
2023-01-05T20:17:01.412Z,79.07
2023-01-05T20:19:32.165Z,78.67
2023-01-05T20:22:03.232Z,77.48
2023-01-05T20:24:33.532Z,77.05
2023-01-05T20:27:05.181Z,76.08
2023-01-05T20:29:33.756Z,75.49
2023-01-05T20:32:04.916Z,75.56
2023-01-05T20:34:35.660Z,74.88
2023-01-05T20:37:04.645Z,74.84
2023-01-05T20:39:33.260Z,73.81
2023-01-05T20:42:05.019Z,72.85
2023-01-05T20:44:35.845Z,71.54
2023-01-05T20:47:05.820Z,70.45
2023-01-05T20:49:36.977Z,69.70
2023-01-05T20:52:05.897Z,68.87
2023-01-05T20:54:34.328Z,67.85
2023-01-05T20:57:03.825Z,67.10
2023-01-05T20:59:34.771Z,66.61
2023-01-05T21:02:05.712Z,66.41
2023-01-05T21:04:35.993Z,65.94
2023-01-05T21:07:04.177Z,66.18
2023-01-05T21:09:33.640Z,65.90
2023-01-05T21:12:03.120Z,65.74
2023-01-05T21:14:31.250Z,66.26
2023-01-05T21:16:59.407Z,65.80
2023-01-05T21:19:29.660Z,65.58
2023-01-05T21:21:59.215Z,66.00
2023-01-05T21:24:28.091Z,65.54
2023-01-05T21:26:56.639Z,65.53
2023-01-05T21:29:27.058Z,65.43
2023-01-05T21:31:56.412Z,65.51
2023-01-05T21:34:26.265Z,65.95
2023-01-05T21:36:54.411Z,65.35
2023-01-05T21:39:24.770Z,65.42
2023-01-05T21:42:11.884Z,64.87
2023-01-05T21:44:41.751Z,64.95
2023-01-05T21:47:10.563Z,65.04
2023-01-05T21:49:38.777Z,64.79
2023-01-05T21:52:24.669Z,64.79
2023-01-05T21:55:10.239Z,64.38
2023-01-05T21:57:38.436Z,63.79
2023-01-05T22:00:09.948Z,63.66
2023-01-05T22:02:38.110Z,63.47
2023-01-05T22:05:07.227Z,63.64
2023-01-05T22:07:35.362Z,63.77
2023-01-05T22:10:03.612Z,63.61
2023-01-05T22:12:31.855Z,63.66
2023-01-05T22:14:59.959Z,63.55
2023-01-05T22:17:29.562Z,63.60
2023-01-05T22:19:57.936Z,63.17
2023-01-05T22:22:26.039Z,63.19
2023-01-05T22:24:54.317Z,63.18
2023-01-05T22:27:22.601Z,63.00
2023-01-05T22:29:50.708Z,63.12
2023-01-05T22:32:18.988Z,62.49
2023-01-05T22:34:48.591Z,62.38
2023-01-05T22:37:17.422Z,61.95
2023-01-05T22:39:45.543Z,62.07
2023-01-05T22:42:13.746Z,62.31
2023-01-05T22:44:42.094Z,62.36
2023-01-05T22:47:10.289Z,62.08
2023-01-05T22:49:38.389Z,62.42
2023-01-05T22:52:07.900Z,62.83
2023-01-05T22:54:36.170Z,62.83
2023-01-05T22:57:04.257Z,62.49
2023-01-05T22:59:32.369Z,62.20
2023-01-05T23:02:00.582Z,62.52
2023-01-05T23:04:28.778Z,62.66
2023-01-05T23:06:56.868Z,62.75
2023-01-05T23:09:26.683Z,62.70
2023-01-05T23:11:54.811Z,62.96
2023-01-05T23:14:23.050Z,62.43
2023-01-05T23:16:51.229Z,62.17
2023-01-05T23:19:19.615Z,62.34
2023-01-05T23:21:48.702Z,62.40
2023-01-05T23:24:16.899Z,62.20
2023-01-05T23:26:46.799Z,62.66
2023-01-05T23:29:14.965Z,62.66
2023-01-05T23:31:43.121Z,62.53
2023-01-05T23:34:11.268Z,62.34
2023-01-05T23:36:40.456Z,62.29
2023-01-05T23:39:08.592Z,61.76
2023-01-05T23:41:36.738Z,62.05
2023-01-05T23:44:08.083Z,61.90
2023-01-05T23:46:37.324Z,61.87
2023-01-05T23:49:05.499Z,61.87
2023-01-05T23:51:33.707Z,62.14
2023-01-05T23:54:01.893Z,62.26
2023-01-05T23:56:32.170Z,62.54
2023-01-05T23:59:08.028Z,61.96
